createdAt,value
2023-02-16T00:00:32.315Z,77
2023-02-16T00:01:04.120Z,77
2023-02-16T00:01:34.715Z,76
2023-02-16T00:01:51.733Z,76
2023-02-16T00:02:27.908Z,76
2023-02-16T00:02:55.751Z,76
2023-02-16T00:03:28.672Z,76
2023-02-16T00:03:59.734Z,76
2023-02-16T00:04:33.475Z,76
2023-02-16T00:05:05.914Z,76
2023-02-16T00:05:36.042Z,76
2023-02-16T00:06:12.221Z,76
2023-02-16T00:06:35.293Z,76
2023-02-16T00:06:55.756Z,76
2023-02-16T00:07:28.167Z,76
2023-02-16T00:08:00.686Z,76
2023-02-16T00:08:31.798Z,76
2023-02-16T00:09:04.682Z,76
2023-02-16T00:09:33.769Z,76
2023-02-16T00:09:51.912Z,76
2023-02-16T00:10:23.894Z,76
2023-02-16T00:10:40.895Z,76
2023-02-16T00:11:12.960Z,76
2023-02-16T00:11:33.610Z,76
2023-02-16T00:12:00.891Z,76
2023-02-16T00:12:31.779Z,76
2023-02-16T00:13:04.027Z,76
2023-02-16T00:13:34.740Z,76
2023-02-16T00:14:07.741Z,76
2023-02-16T00:14:34.034Z,76
2023-02-16T00:14:56.694Z,76
2023-02-16T00:15:28.765Z,76
2023-02-16T00:15:59.917Z,76
2023-02-16T00:16:32.648Z,76
2023-02-16T00:17:03.787Z,76
2023-02-16T00:17:34.833Z,76
2023-02-16T00:18:07.717Z,76
2023-02-16T00:18:33.827Z,76
2023-02-16T00:18:55.770Z,76
2023-02-16T00:19:27.747Z,76
2023-02-16T00:20:00.677Z,76
2023-02-16T00:20:31.747Z,76
2023-02-16T00:21:04.825Z,76
2023-02-16T00:21:33.620Z,76
2023-02-16T00:21:51.744Z,76
2023-02-16T00:22:23.708Z,76
2023-02-16T00:22:40.853Z,76
2023-02-16T00:23:12.814Z,76
2023-02-16T00:23:34.391Z,76
2023-02-16T00:24:00.277Z,76
2023-02-16T00:24:31.857Z,76
2023-02-16T00:25:04.040Z,76
2023-02-16T00:25:33.670Z,76
2023-02-16T00:25:51.903Z,75
2023-02-16T00:26:24.563Z,76
2023-02-16T00:26:41.353Z,76
2023-02-16T00:27:12.017Z,76
2023-02-16T00:27:33.885Z,76
2023-02-16T00:27:59.703Z,76
2023-02-16T00:28:32.503Z,76
2023-02-16T00:29:03.720Z,76
2023-02-16T00:29:34.912Z,76
2023-02-16T00:29:52.455Z,76
2023-02-16T00:30:24.058Z,76
2023-02-16T00:30:41.708Z,76
2023-02-16T00:31:11.863Z,76
2023-02-16T00:31:34.111Z,76
2023-02-16T00:32:00.160Z,76
2023-02-16T00:32:31.919Z,76
2023-02-16T00:33:04.549Z,76
2023-02-16T00:33:33.606Z,76
2023-02-16T00:33:51.927Z,76
2023-02-16T00:34:23.874Z,76
2023-02-16T00:34:40.958Z,76
2023-02-16T00:35:12.975Z,76
2023-02-16T00:35:33.953Z,76
2023-02-16T00:35:59.973Z,76
2023-02-16T00:36:31.775Z,76
2023-02-16T00:37:04.382Z,76
2023-02-16T00:37:33.647Z,76
2023-02-16T00:37:51.750Z,76
2023-02-16T00:38:24.547Z,76
2023-02-16T00:38:55.764Z,76
2023-02-16T00:39:28.396Z,76
2023-02-16T00:39:59.843Z,76
2023-02-16T00:40:32.848Z,76
2023-02-16T00:41:04.302Z,76
2023-02-16T00:41:34.496Z,76
2023-02-16T00:41:51.804Z,76
2023-02-16T00:42:23.772Z,76
2023-02-16T00:42:41.694Z,76
2023-02-16T00:43:11.837Z,76
2023-02-16T00:43:33.751Z,76
2023-02-16T00:43:59.780Z,76
2023-02-16T00:44:31.837Z,76
2023-02-16T00:45:05.006Z,76
2023-02-16T00:45:33.647Z,76
2023-02-16T00:45:52.083Z,76
2023-02-16T00:46:23.812Z,76
2023-02-16T00:46:41.374Z,76
2023-02-16T00:47:12.536Z,76
2023-02-16T00:47:33.672Z,76
2023-02-16T00:47:59.762Z,77
2023-02-16T00:48:32.018Z,76
2023-02-16T00:49:03.728Z,76
2023-02-16T00:49:33.767Z,76
2023-02-16T00:49:51.850Z,76
2023-02-16T00:50:24.667Z,76
2023-02-16T00:50:55.843Z,76
2023-02-16T00:51:28.865Z,76
2023-02-16T00:51:59.909Z,76
2023-02-16T00:52:32.762Z,76
2023-02-16T00:53:05.071Z,76
2023-02-16T00:53:34.563Z,76
2023-02-16T00:53:51.797Z,76
2023-02-16T00:54:23.779Z,76
2023-02-16T00:54:46.058Z,76
2023-02-16T00:55:12.011Z,76
2023-02-16T00:55:34.768Z,76
2023-02-16T00:56:01.795Z,76
2023-02-16T00:56:31.747Z,76
2023-02-16T00:57:05.210Z,76
2023-02-16T00:57:34.444Z,76
2023-02-16T00:57:51.803Z,76
2023-02-16T00:58:23.805Z,76
2023-02-16T00:58:40.949Z,76
2023-02-16T00:59:12.609Z,76
2023-02-16T00:59:34.421Z,76
2023-02-16T00:59:59.829Z,76
2023-02-16T01:00:33.443Z,76
2023-02-16T01:01:04.187Z,76
2023-02-16T01:01:34.180Z,76
2023-02-16T01:01:51.856Z,76
2023-02-16T01:02:25.709Z,76
2023-02-16T01:02:56.940Z,76
2023-02-16T01:03:28.884Z,76
2023-02-16T01:03:59.720Z,76
2023-02-16T01:04:32.815Z,76
2023-02-16T01:05:03.952Z,76
2023-02-16T01:05:34.465Z,76
2023-02-16T01:05:52.879Z,76
2023-02-16T01:06:23.745Z,76
2023-02-16T01:06:41.784Z,76
2023-02-16T01:07:11.993Z,76
2023-02-16T01:07:39.933Z,76
2023-02-16T01:07:59.955Z,76
2023-02-16T01:08:31.753Z,76
2023-02-16T01:09:04.922Z,76
2023-02-16T01:09:34.724Z,76
2023-02-16T01:09:52.053Z,76
2023-02-16T01:10:24.504Z,76
2023-02-16T01:10:41.383Z,76
2023-02-16T01:11:12.680Z,76
2023-02-16T01:11:33.925Z,76
2023-02-16T01:11:59.763Z,76
2023-02-16T01:12:31.776Z,76
2023-02-16T01:13:03.766Z,76
2023-02-16T01:13:33.637Z,76
2023-02-16T01:13:52.363Z,76
2023-02-16T01:14:25.614Z,76
2023-02-16T01:14:55.815Z,76
2023-02-16T01:15:28.653Z,76
2023-02-16T01:15:59.887Z,76
2023-02-16T01:16:33.094Z,76
2023-02-16T01:17:03.889Z,76
2023-02-16T01:17:34.481Z,76
2023-02-16T01:17:51.516Z,76
2023-02-16T01:18:23.802Z,76
2023-02-16T01:18:43.285Z,76
2023-02-16T01:19:11.741Z,76
2023-02-16T01:19:33.829Z,76
2023-02-16T01:19:59.724Z,76
2023-02-16T01:20:32.044Z,76
2023-02-16T01:21:05.275Z,76
2023-02-16T01:21:33.647Z,76
2023-02-16T01:21:51.746Z,76
2023-02-16T01:22:23.745Z,76
2023-02-16T01:22:40.873Z,76
2023-02-16T01:23:13.158Z,76
2023-02-16T01:23:33.639Z,76
2023-02-16T01:23:59.716Z,76
2023-02-16T01:24:31.797Z,76
2023-02-16T01:25:03.885Z,76
2023-02-16T01:25:33.678Z,76
2023-02-16T01:25:51.889Z,76
2023-02-16T01:26:24.819Z,76
2023-02-16T01:26:41.646Z,76
2023-02-16T01:27:11.768Z,76
2023-02-16T01:27:33.599Z,76
2023-02-16T01:27:59.825Z,76
2023-02-16T01:28:32.506Z,76
2023-02-16T01:29:03.781Z,76
2023-02-16T01:29:35.011Z,76
2023-02-16T01:30:07.526Z,76
2023-02-16T01:30:23.807Z,76
2023-02-16T01:30:41.740Z,76
2023-02-16T01:31:11.914Z,76
2023-02-16T01:31:33.798Z,76
2023-02-16T01:31:59.819Z,77
2023-02-16T01:32:31.764Z,76
2023-02-16T01:33:04.853Z,77
2023-02-16T01:33:33.764Z,77
2023-02-16T01:33:52.387Z,77
2023-02-16T01:34:23.869Z,77
2023-02-16T01:34:41.000Z,77
2023-02-16T01:35:12.717Z,77
2023-02-16T01:35:33.599Z,77
2023-02-16T01:35:59.918Z,77
2023-02-16T01:36:31.812Z,77
2023-02-16T01:37:04.718Z,77
2023-02-16T01:37:33.650Z,77
2023-02-16T01:37:51.795Z,77
2023-02-16T01:38:24.831Z,77
2023-02-16T01:38:56.943Z,77
2023-02-16T01:39:28.479Z,77
2023-02-16T01:39:59.806Z,77
2023-02-16T01:40:32.744Z,77
2023-02-16T01:41:04.677Z,77
2023-02-16T01:41:34.637Z,77
2023-02-16T01:42:07.792Z,77
2023-02-16T01:42:33.670Z,77
2023-02-16T01:42:55.784Z,77
2023-02-16T01:43:27.758Z,77
2023-02-16T01:44:00.832Z,77
2023-02-16T01:44:31.917Z,77
2023-02-16T01:45:05.194Z,77
2023-02-16T01:45:34.266Z,77
2023-02-16T01:45:51.924Z,77
2023-02-16T01:46:23.802Z,78
2023-02-16T01:46:40.968Z,78
2023-02-16T01:47:12.578Z,78
2023-02-16T01:47:34.224Z,78
2023-02-16T01:47:59.730Z,78
2023-02-16T01:48:31.782Z,78
2023-02-16T01:49:03.851Z,79
2023-02-16T01:49:33.618Z,79
2023-02-16T01:49:52.434Z,79
2023-02-16T01:50:24.793Z,79
2023-02-16T01:50:55.729Z,79
2023-02-16T01:51:28.693Z,79
2023-02-16T01:51:59.781Z,79
2023-02-16T01:52:32.642Z,79
2023-02-16T01:53:03.780Z,79
2023-02-16T01:53:34.709Z,79
2023-02-16T01:53:52.235Z,79
2023-02-16T01:54:23.870Z,79
2023-02-16T01:54:42.666Z,79
2023-02-16T01:55:11.934Z,79
2023-02-16T01:55:34.181Z,79
2023-02-16T01:56:00.083Z,79
2023-02-16T01:56:31.768Z,80
2023-02-16T01:57:04.635Z,80
2023-02-16T01:57:33.656Z,79
2023-02-16T01:57:51.788Z,79
2023-02-16T01:58:23.767Z,79
2023-02-16T01:58:40.911Z,79
2023-02-16T01:59:12.665Z,79
2023-02-16T01:59:33.931Z,79
2023-02-16T01:59:59.768Z,79
2023-02-16T02:00:32.003Z,79
2023-02-16T02:01:04.230Z,79
2023-02-16T02:01:34.194Z,79
2023-02-16T02:01:52.009Z,79
2023-02-16T02:02:24.530Z,79
2023-02-16T02:02:41.677Z,79
2023-02-16T02:03:11.951Z,79
2023-02-16T02:03:33.610Z,79
2023-02-16T02:03:59.758Z,79
2023-02-16T02:04:32.670Z,79
2023-02-16T02:05:03.969Z,80
2023-02-16T02:05:34.503Z,80
2023-02-16T02:05:51.934Z,80
2023-02-16T02:06:23.892Z,80
2023-02-16T02:06:41.926Z,80
2023-02-16T02:07:11.778Z,80
2023-02-16T02:07:33.837Z,80
2023-02-16T02:07:59.805Z,80
2023-02-16T02:08:31.805Z,80
2023-02-16T02:09:04.721Z,80
2023-02-16T02:09:34.311Z,80
2023-02-16T02:09:51.770Z,80
2023-02-16T02:10:23.872Z,80
2023-02-16T02:10:40.929Z,80
2023-02-16T02:11:12.601Z,80
2023-02-16T02:11:33.605Z,80
2023-02-16T02:11:59.866Z,80
2023-02-16T02:12:31.868Z,80
2023-02-16T02:13:03.805Z,80
2023-02-16T02:13:33.664Z,80
2023-02-16T02:13:51.826Z,81
2023-02-16T02:14:24.583Z,81
2023-02-16T02:14:55.777Z,80
2023-02-16T02:15:28.841Z,80
2023-02-16T02:15:59.873Z,80
2023-02-16T02:16:32.590Z,80
2023-02-16T02:17:04.784Z,80
2023-02-16T02:17:34.417Z,80
2023-02-16T02:17:51.746Z,80
2023-02-16T02:18:23.780Z,81
2023-02-16T02:18:42.478Z,81
2023-02-16T02:19:12.910Z,81
2023-02-16T02:19:33.635Z,81
2023-02-16T02:19:59.756Z,81
2023-02-16T02:20:32.022Z,81
2023-02-16T02:21:04.780Z,80
2023-02-16T02:21:33.621Z,80
2023-02-16T02:21:51.824Z,80
2023-02-16T02:22:23.821Z,80
2023-02-16T02:22:40.915Z,80
2023-02-16T02:23:12.612Z,80
2023-02-16T02:23:33.854Z,80
2023-02-16T02:23:59.731Z,80
2023-02-16T02:24:31.754Z,79
2023-02-16T02:25:04.865Z,79
2023-02-16T02:25:33.729Z,79
2023-02-16T02:25:52.156Z,79
2023-02-16T02:26:24.473Z,79
2023-02-16T02:26:41.720Z,79
2023-02-16T02:27:11.774Z,79
2023-02-16T02:27:33.658Z,79
2023-02-16T02:27:59.899Z,79
2023-02-16T02:28:32.532Z,79
2023-02-16T02:29:03.784Z,79
2023-02-16T02:29:34.423Z,79
2023-02-16T02:29:51.820Z,79
2023-02-16T02:30:24.127Z,79
2023-02-16T02:30:41.765Z,79
2023-02-16T02:31:11.980Z,79
2023-02-16T02:31:33.929Z,79
2023-02-16T02:32:00.112Z,79
2023-02-16T02:32:31.798Z,79
2023-02-16T02:33:05.128Z,79
2023-02-16T02:33:33.659Z,79
2023-02-16T02:33:51.840Z,79
2023-02-16T02:34:23.827Z,78
2023-02-16T02:34:41.966Z,78
2023-02-16T02:35:12.829Z,78
2023-02-16T02:35:33.653Z,78
2023-02-16T02:36:00.708Z,78
2023-02-16T02:36:31.774Z,78
2023-02-16T02:37:04.307Z,78
2023-02-16T02:37:33.679Z,78
2023-02-16T02:37:51.792Z,78
2023-02-16T02:38:24.636Z,78
2023-02-16T02:38:55.828Z,78
2023-02-16T02:39:28.560Z,78
2023-02-16T02:39:59.908Z,78
2023-02-16T02:40:32.883Z,78
2023-02-16T02:41:04.005Z,78
2023-02-16T02:41:34.386Z,78
2023-02-16T02:41:51.877Z,78
2023-02-16T02:42:23.888Z,78
2023-02-16T02:42:42.307Z,78
2023-02-16T02:43:11.732Z,78
2023-02-16T02:43:33.636Z,78
2023-02-16T02:43:59.996Z,78
2023-02-16T02:44:31.784Z,78
2023-02-16T02:45:04.879Z,78
2023-02-16T02:45:33.681Z,78
2023-02-16T02:45:51.929Z,78
2023-02-16T02:46:23.862Z,78
2023-02-16T02:46:40.969Z,78
2023-02-16T02:47:12.708Z,78
2023-02-16T02:47:34.557Z,78
2023-02-16T02:47:59.964Z,78
2023-02-16T02:48:31.789Z,78
2023-02-16T02:49:03.877Z,78
2023-02-16T02:49:33.818Z,78
2023-02-16T02:49:51.773Z,78
2023-02-16T02:50:24.870Z,78
2023-02-16T02:50:41.692Z,78
2023-02-16T02:51:12.013Z,78
2023-02-16T02:51:33.638Z,78
2023-02-16T02:51:59.996Z,78
2023-02-16T02:52:32.887Z,78
2023-02-16T02:53:03.787Z,78
2023-02-16T02:53:34.438Z,79
2023-02-16T02:53:51.770Z,79
2023-02-16T02:54:24.405Z,78
2023-02-16T02:54:42.337Z,78
2023-02-16T02:55:12.002Z,79
2023-02-16T02:55:33.661Z,79
2023-02-16T02:55:59.942Z,79
2023-02-16T02:56:31.798Z,79
2023-02-16T02:57:04.768Z,79
2023-02-16T02:57:33.683Z,79
2023-02-16T02:57:51.770Z,79
2023-02-16T02:58:24.007Z,79
2023-02-16T02:58:41.196Z,79
2023-02-16T02:59:12.610Z,79
2023-02-16T02:59:33.644Z,79
2023-02-16T02:59:59.752Z,79
2023-02-16T03:00:31.990Z,79
2023-02-16T03:01:04.124Z,79
2023-02-16T03:01:33.683Z,79
2023-02-16T03:01:51.892Z,79
2023-02-16T03:02:24.602Z,79
2023-02-16T03:02:41.597Z,79
2023-02-16T03:03:12.259Z,79
2023-02-16T03:03:33.930Z,79
2023-02-16T03:03:59.803Z,79
2023-02-16T03:04:32.561Z,80
2023-02-16T03:05:03.952Z,80
2023-02-16T03:05:34.806Z,80
2023-02-16T03:06:07.975Z,80
2023-02-16T03:06:33.811Z,80
2023-02-16T03:06:55.890Z,80
2023-02-16T03:07:27.792Z,80
2023-02-16T03:08:00.513Z,80
2023-02-16T03:08:31.880Z,80
2023-02-16T03:09:04.582Z,80
2023-02-16T03:09:33.663Z,80
2023-02-16T03:09:51.790Z,80
2023-02-16T03:10:24.130Z,80
2023-02-16T03:10:41.524Z,80
2023-02-16T03:11:15.037Z,80
2023-02-16T03:11:35.104Z,80
2023-02-16T03:11:59.951Z,80
2023-02-16T03:12:31.852Z,80
2023-02-16T03:13:03.832Z,80
2023-02-16T03:13:33.734Z,80
2023-02-16T03:13:51.792Z,80
2023-02-16T03:14:24.796Z,80
2023-02-16T03:14:41.756Z,80
2023-02-16T03:15:12.050Z,80
2023-02-16T03:15:33.693Z,80
2023-02-16T03:15:59.968Z,80
2023-02-16T03:16:32.534Z,80
2023-02-16T03:17:04.737Z,80
2023-02-16T03:17:34.710Z,80
2023-02-16T03:17:52.184Z,80
2023-02-16T03:18:23.869Z,80
2023-02-16T03:18:41.615Z,80
2023-02-16T03:19:11.778Z,80
2023-02-16T03:19:33.876Z,80
2023-02-16T03:19:59.779Z,80
2023-02-16T03:20:31.888Z,80
2023-02-16T03:21:05.005Z,80
2023-02-16T03:21:33.636Z,80
2023-02-16T03:21:51.754Z,81
2023-02-16T03:22:28.793Z,81
2023-02-16T03:22:55.875Z,81
2023-02-16T03:23:27.792Z,81
2023-02-16T03:23:59.799Z,81
2023-02-16T03:24:31.757Z,81
2023-02-16T03:25:03.944Z,81
2023-02-16T03:25:34.160Z,81
2023-02-16T03:25:51.934Z,81
2023-02-16T03:26:24.515Z,81
2023-02-16T03:26:41.670Z,81
2023-02-16T03:27:12.804Z,81
2023-02-16T03:27:33.694Z,81
2023-02-16T03:27:59.783Z,81
2023-02-16T03:28:32.488Z,81
2023-02-16T03:29:04.089Z,81
2023-02-16T03:29:34.343Z,81
2023-02-16T03:29:51.838Z,81
2023-02-16T03:30:24.882Z,81
2023-02-16T03:30:56.619Z,80
2023-02-16T03:31:27.981Z,80
2023-02-16T03:32:00.651Z,80
2023-02-16T03:32:31.774Z,80
2023-02-16T03:33:04.564Z,80
2023-02-16T03:33:33.610Z,80
2023-02-16T03:33:51.868Z,80
2023-02-16T03:34:24.202Z,80
2023-02-16T03:34:41.290Z,80
2023-02-16T03:35:13.587Z,80
2023-02-16T03:35:33.790Z,80
2023-02-16T03:35:59.999Z,80
2023-02-16T03:36:31.779Z,80
2023-02-16T03:37:03.825Z,80
2023-02-16T03:37:34.021Z,80
2023-02-16T03:37:51.964Z,80
2023-02-16T03:38:24.590Z,80
2023-02-16T03:38:57.280Z,80
2023-02-16T03:39:29.434Z,80
2023-02-16T03:39:59.865Z,80
2023-02-16T03:40:32.781Z,80
2023-02-16T03:41:04.936Z,80
2023-02-16T03:41:34.347Z,80
2023-02-16T03:41:51.780Z,80
2023-02-16T03:42:23.936Z,80
2023-02-16T03:42:41.835Z,80
2023-02-16T03:43:12.931Z,80
2023-02-16T03:43:33.644Z,80
2023-02-16T03:43:59.855Z,80
2023-02-16T03:44:31.795Z,80
2023-02-16T03:45:04.887Z,80
2023-02-16T03:45:33.665Z,80
2023-02-16T03:45:51.895Z,80
2023-02-16T03:46:24.675Z,80
2023-02-16T03:46:41.006Z,80
2023-02-16T03:47:14.536Z,80
2023-02-16T03:47:33.665Z,80
2023-02-16T03:47:59.872Z,80
2023-02-16T03:48:31.835Z,80
2023-02-16T03:49:04.028Z,80
2023-02-16T03:49:33.719Z,80
2023-02-16T03:50:07.906Z,80
2023-02-16T03:50:33.914Z,80
2023-02-16T03:50:56.019Z,80
2023-02-16T03:51:28.717Z,80
2023-02-16T03:51:59.833Z,80
2023-02-16T03:52:32.797Z,80
2023-02-16T03:53:03.808Z,80
2023-02-16T03:53:34.703Z,80
2023-02-16T03:54:07.792Z,80
2023-02-16T03:54:33.617Z,80
2023-02-16T03:54:55.883Z,80
2023-02-16T03:55:28.077Z,80
2023-02-16T03:56:01.589Z,81
2023-02-16T03:56:31.815Z,80
2023-02-16T03:57:05.355Z,80
2023-02-16T03:57:33.652Z,80
2023-02-16T03:57:51.829Z,80
2023-02-16T03:58:23.895Z,80
2023-02-16T03:58:41.046Z,80
2023-02-16T03:59:14.635Z,80
2023-02-16T03:59:33.689Z,80
2023-02-16T03:59:59.871Z,80
2023-02-16T04:00:32.089Z,80
2023-02-16T04:01:04.030Z,80
2023-02-16T04:01:34.285Z,80
2023-02-16T04:01:51.829Z,80
2023-02-16T04:02:24.726Z,80
2023-02-16T04:02:55.816Z,80
2023-02-16T04:03:28.693Z,80
2023-02-16T04:03:59.877Z,80
2023-02-16T04:04:33.278Z,80
2023-02-16T04:05:04.066Z,80
2023-02-16T04:05:34.508Z,80
2023-02-16T04:05:51.984Z,80
2023-02-16T04:06:23.863Z,80
2023-02-16T04:06:43.521Z,80
2023-02-16T04:07:11.791Z,81
2023-02-16T04:07:33.736Z,80
2023-02-16T04:08:02.143Z,81
2023-02-16T04:08:31.830Z,81
2023-02-16T04:09:04.563Z,81
2023-02-16T04:09:33.845Z,81
2023-02-16T04:09:52.858Z,81
2023-02-16T04:10:24.310Z,81
2023-02-16T04:10:41.221Z,81
2023-02-16T04:11:14.589Z,81
2023-02-16T04:11:33.733Z,81
2023-02-16T04:11:59.843Z,81
2023-02-16T04:12:31.803Z,81
2023-02-16T04:13:03.893Z,81
2023-02-16T04:13:33.889Z,81
2023-02-16T04:13:51.839Z,81
2023-02-16T04:14:24.941Z,81
2023-02-16T04:14:43.755Z,81
2023-02-16T04:15:13.018Z,81
2023-02-16T04:15:33.793Z,81
2023-02-16T04:15:59.938Z,81
2023-02-16T04:16:32.782Z,81
2023-02-16T04:17:03.813Z,81
2023-02-16T04:17:34.429Z,81
2023-02-16T04:17:51.840Z,81
2023-02-16T04:18:24.014Z,81
2023-02-16T04:18:44.834Z,81
2023-02-16T04:19:12.748Z,81
2023-02-16T04:19:33.666Z,81
2023-02-16T04:20:00.732Z,81
2023-02-16T04:20:31.779Z,81
2023-02-16T04:21:05.008Z,81
2023-02-16T04:21:33.614Z,81
2023-02-16T04:21:51.853Z,81
2023-02-16T04:22:24.057Z,81
2023-02-16T04:22:41.078Z,81
2023-02-16T04:23:18.171Z,81
2023-02-16T04:23:35.909Z,81
2023-02-16T04:23:59.943Z,81
2023-02-16T04:24:31.826Z,81
2023-02-16T04:25:04.145Z,81
2023-02-16T04:25:33.715Z,81
2023-02-16T04:25:53.276Z,81
2023-02-16T04:26:23.984Z,81
2023-02-16T04:26:41.142Z,81
2023-02-16T04:27:11.972Z,81
2023-02-16T04:27:33.789Z,81
2023-02-16T04:28:00.684Z,81
2023-02-16T04:28:31.789Z,81
2023-02-16T04:29:04.605Z,81
2023-02-16T04:29:33.699Z,81
2023-02-16T04:29:51.969Z,81
2023-02-16T04:30:24.159Z,81
2023-02-16T04:30:41.128Z,81
2023-02-16T04:31:12.715Z,81
2023-02-16T04:31:33.810Z,81
2023-02-16T04:32:00.034Z,81
2023-02-16T04:32:31.831Z,81
2023-02-16T04:33:03.778Z,81
2023-02-16T04:33:33.629Z,81
2023-02-16T04:33:51.804Z,81
2023-02-16T04:34:24.814Z,81
2023-02-16T04:34:41.479Z,81
2023-02-16T04:35:12.031Z,81
2023-02-16T04:35:33.671Z,81
2023-02-16T04:36:00.000Z,81
2023-02-16T04:36:32.741Z,81
2023-02-16T04:37:03.830Z,81
2023-02-16T04:37:34.824Z,81
2023-02-16T04:38:07.803Z,81
2023-02-16T04:38:33.638Z,81
2023-02-16T04:38:55.829Z,81
2023-02-16T04:39:29.357Z,81
2023-02-16T04:40:00.853Z,81
2023-02-16T04:40:31.808Z,81
2023-02-16T04:41:04.956Z,81
2023-02-16T04:41:33.649Z,81
2023-02-16T04:41:52.148Z,81
2023-02-16T04:42:23.858Z,81
2023-02-16T04:42:40.967Z,81
2023-02-16T04:43:12.627Z,81
2023-02-16T04:43:33.705Z,81
2023-02-16T04:43:59.830Z,82
2023-02-16T04:44:31.817Z,81
2023-02-16T04:45:04.013Z,81
2023-02-16T04:45:34.068Z,81
2023-02-16T04:45:52.336Z,81
2023-02-16T04:46:25.904Z,82
2023-02-16T04:46:55.841Z,82
2023-02-16T04:47:28.884Z,81
2023-02-16T04:47:59.862Z,81
2023-02-16T04:48:32.610Z,81
2023-02-16T04:49:03.796Z,81
2023-02-16T04:49:35.468Z,81
2023-02-16T04:50:12.156Z,81
2023-02-16T04:50:33.711Z,81
2023-02-16T04:50:56.078Z,81
2023-02-16T04:51:32.541Z,81
2023-02-16T04:52:00.647Z,82
2023-02-16T04:52:33.159Z,81
2023-02-16T04:53:04.616Z,81
2023-02-16T04:53:33.646Z,81
2023-02-16T04:53:51.819Z,81
2023-02-16T04:54:23.897Z,81
2023-02-16T04:54:42.809Z,81
2023-02-16T04:55:12.992Z,82
2023-02-16T04:55:33.760Z,81
2023-02-16T04:56:00.430Z,82
2023-02-16T04:56:31.817Z,82
2023-02-16T04:57:03.910Z,82
2023-02-16T04:57:33.852Z,82
2023-02-16T04:57:51.828Z,81
2023-02-16T04:58:25.997Z,82
2023-02-16T04:58:55.817Z,82
2023-02-16T04:59:29.658Z,82
2023-02-16T04:59:59.967Z,81
2023-02-16T05:00:35.665Z,82
2023-02-16T05:01:04.244Z,82
2023-02-16T05:01:34.997Z,82
2023-02-16T05:01:51.955Z,82
2023-02-16T05:02:24.031Z,82
2023-02-16T05:02:41.966Z,82
2023-02-16T05:03:11.877Z,82
2023-02-16T05:03:33.701Z,82
2023-02-16T05:03:59.903Z,81
2023-02-16T05:04:31.994Z,81
2023-02-16T05:05:05.599Z,81
2023-02-16T05:05:33.718Z,81
2023-02-16T05:05:51.962Z,81
2023-02-16T05:06:23.935Z,81
2023-02-16T05:06:41.004Z,81
2023-02-16T05:07:12.911Z,82
2023-02-16T05:07:33.641Z,82
2023-02-16T05:08:00.002Z,81
2023-02-16T05:08:31.798Z,81
2023-02-16T05:09:03.770Z,81
2023-02-16T05:09:33.658Z,81
2023-02-16T05:09:51.886Z,81
2023-02-16T05:10:24.749Z,81
2023-02-16T05:10:56.211Z,81
2023-02-16T05:11:28.493Z,81
2023-02-16T05:11:59.979Z,81
2023-02-16T05:12:32.713Z,81
2023-02-16T05:13:03.841Z,81
2023-02-16T05:13:33.959Z,81
2023-02-16T05:13:51.849Z,81
2023-02-16T05:14:24.767Z,81
2023-02-16T05:14:55.831Z,81
2023-02-16T05:15:29.038Z,81
2023-02-16T05:15:59.986Z,81
2023-02-16T05:16:32.649Z,81
2023-02-16T05:17:03.986Z,81
2023-02-16T05:17:34.475Z,81
2023-02-16T05:17:51.860Z,81
2023-02-16T05:18:23.873Z,81
2023-02-16T05:18:41.966Z,81
2023-02-16T05:19:11.847Z,81
2023-02-16T05:19:33.665Z,81
2023-02-16T05:19:59.867Z,81
2023-02-16T05:20:32.020Z,81
2023-02-16T05:21:04.941Z,81
2023-02-16T05:21:33.732Z,81
2023-02-16T05:21:51.850Z,81
2023-02-16T05:22:23.852Z,81
2023-02-16T05:22:41.180Z,81
2023-02-16T05:23:13.639Z,81
2023-02-16T05:23:33.678Z,81
2023-02-16T05:24:00.038Z,81
2023-02-16T05:24:31.839Z,81
2023-02-16T05:25:04.056Z,81
2023-02-16T05:25:34.055Z,81
2023-02-16T05:25:52.008Z,81
2023-02-16T05:26:24.629Z,81
2023-02-16T05:26:55.826Z,81
2023-02-16T05:27:28.618Z,81
2023-02-16T05:28:00.212Z,81
2023-02-16T05:28:32.666Z,81
2023-02-16T05:29:03.851Z,81
2023-02-16T05:29:34.666Z,81
2023-02-16T05:29:52.068Z,81
2023-02-16T05:30:24.213Z,80
2023-02-16T05:30:42.829Z,80
2023-02-16T05:31:11.993Z,81
2023-02-16T05:31:33.820Z,81
2023-02-16T05:32:00.969Z,81
2023-02-16T05:32:31.817Z,81
2023-02-16T05:33:05.421Z,81
2023-02-16T05:33:34.079Z,81
2023-02-16T05:33:51.843Z,81
2023-02-16T05:34:23.948Z,81
2023-02-16T05:34:40.990Z,81
2023-02-16T05:35:12.916Z,81
2023-02-16T05:35:33.686Z,81
2023-02-16T05:35:59.973Z,80
2023-02-16T05:36:32.287Z,80
2023-02-16T05:37:03.850Z,80
2023-02-16T05:37:33.670Z,80
2023-02-16T05:37:52.318Z,80
2023-02-16T05:38:24.731Z,80
2023-02-16T05:38:55.842Z,80
2023-02-16T05:39:28.943Z,80
2023-02-16T05:39:59.876Z,80
2023-02-16T05:40:33.230Z,80
2023-02-16T05:41:04.259Z,80
2023-02-16T05:41:34.433Z,80
2023-02-16T05:41:53.098Z,80
2023-02-16T05:42:23.889Z,80
2023-02-16T05:42:42.496Z,80
2023-02-16T05:43:11.822Z,80
2023-02-16T05:43:34.484Z,80
2023-02-16T05:43:59.878Z,80
2023-02-16T05:44:31.828Z,80
2023-02-16T05:45:04.976Z,80
2023-02-16T05:45:33.732Z,80
2023-02-16T05:45:52.134Z,80
2023-02-16T05:46:24.067Z,80
2023-02-16T05:46:41.110Z,80
2023-02-16T05:47:12.845Z,80
2023-02-16T05:47:33.685Z,80
2023-02-16T05:47:59.846Z,80
2023-02-16T05:48:31.906Z,79
2023-02-16T05:49:03.881Z,79
2023-02-16T05:49:36.661Z,79
2023-02-16T05:50:08.004Z,79
2023-02-16T05:50:33.711Z,79
2023-02-16T05:50:56.001Z,79
2023-02-16T05:51:27.955Z,79
2023-02-16T05:52:00.736Z,79
2023-02-16T05:52:31.960Z,79
2023-02-16T05:53:04.829Z,79
2023-02-16T05:53:33.698Z,79
2023-02-16T05:53:51.814Z,79
2023-02-16T05:54:23.885Z,79
2023-02-16T05:54:40.941Z,79
2023-02-16T05:55:12.759Z,79
2023-02-16T05:55:33.697Z,79
2023-02-16T05:56:00.152Z,79
2023-02-16T05:56:31.832Z,79
2023-02-16T05:57:03.883Z,79
2023-02-16T05:57:34.198Z,79
2023-02-16T05:57:51.850Z,79
2023-02-16T05:58:24.628Z,79
2023-02-16T05:58:42.575Z,79
2023-02-16T05:59:11.831Z,79
2023-02-16T05:59:34.032Z,79
2023-02-16T05:59:59.904Z,79
2023-02-16T06:00:32.937Z,79
2023-02-16T06:01:05.131Z,79
2023-02-16T06:01:34.494Z,79
2023-02-16T06:01:52.591Z,79
2023-02-16T06:02:23.969Z,79
2023-02-16T06:02:42.264Z,79
2023-02-16T06:03:11.874Z,79
2023-02-16T06:03:33.869Z,79
2023-02-16T06:03:59.930Z,79
2023-02-16T06:04:31.989Z,79
2023-02-16T06:05:04.762Z,79
2023-02-16T06:05:33.784Z,79
2023-02-16T06:05:51.985Z,79
2023-02-16T06:06:23.973Z,79
2023-02-16T06:06:41.007Z,79
2023-02-16T06:07:14.834Z,79
2023-02-16T06:07:33.650Z,79
2023-02-16T06:08:00.051Z,79
2023-02-16T06:08:32.588Z,79
2023-02-16T06:09:03.923Z,79
2023-02-16T06:09:33.677Z,79
2023-02-16T06:09:51.903Z,79
2023-02-16T06:10:56.920Z,79
2023-02-16T06:11:27.869Z,79
2023-02-16T06:11:59.876Z,79
2023-02-16T06:12:31.857Z,79
2023-02-16T06:13:04.133Z,79
2023-02-16T06:13:34.697Z,79
2023-02-16T06:13:52.391Z,79
2023-02-16T06:14:24.601Z,79
2023-02-16T06:14:55.890Z,79
2023-02-16T06:15:28.896Z,79
2023-02-16T06:15:59.913Z,79
2023-02-16T06:16:33.282Z,79
2023-02-16T06:17:03.943Z,79
2023-02-16T06:17:34.678Z,79
2023-02-16T06:17:53.308Z,79
2023-02-16T06:18:23.873Z,79
2023-02-16T06:18:44.787Z,79
2023-02-16T06:19:12.575Z,79
2023-02-16T06:19:34.292Z,79
2023-02-16T06:20:00.005Z,79
2023-02-16T06:20:32.848Z,79
2023-02-16T06:21:05.688Z,79
2023-02-16T06:21:34.254Z,79
2023-02-16T06:21:51.942Z,79
2023-02-16T06:22:23.943Z,79
2023-02-16T06:22:41.045Z,79
2023-02-16T06:23:12.657Z,79
2023-02-16T06:23:33.775Z,79
2023-02-16T06:23:59.874Z,79
2023-02-16T06:24:31.947Z,79
2023-02-16T06:25:04.049Z,79
2023-02-16T06:25:33.668Z,79
2023-02-16T06:25:51.979Z,79
2023-02-16T06:26:24.857Z,79
2023-02-16T06:26:57.238Z,79
2023-02-16T06:27:28.908Z,79
2023-02-16T06:27:59.970Z,79
2023-02-16T06:28:33.041Z,79
2023-02-16T06:29:03.847Z,79
2023-02-16T06:29:34.878Z,79
2023-02-16T06:30:08.185Z,79
2023-02-16T06:30:34.385Z,79
2023-02-16T06:30:57.643Z,79
2023-02-16T06:31:30.712Z,79
2023-02-16T06:32:01.186Z,79
2023-02-16T06:33:04.568Z,79
2023-02-16T06:33:34.271Z,80
2023-02-16T06:33:51.837Z,79
2023-02-16T06:34:23.922Z,80
2023-02-16T06:34:40.952Z,80
2023-02-16T06:35:12.861Z,79
2023-02-16T06:35:33.720Z,79
2023-02-16T06:36:00.111Z,79